Arispe, Iowa
Current Conditions -  °F | °C
As of 9:55 PM on Tuesday 27 Jan 2015 (Local Time) from KCSQ Reporting Station
Clear Clear  
Wind Chill: 23°   Ceiling: Unl
Heat Index: 32°   Visibility: 10mi
Dew Point: 30°   Wind: 12mph
Humidity: 93%   Direction: 130°SE
Pressure: 30.09"   Gusts: NA
Location:  40.95°N, 94.22°W
Report Text: KCSQ 280355Z AUTO 13010KT 10SM CLR 00/M01 A3009 RMK AO2
Loading
Personal Weather Stations






























Interactive Weather Map New forecast layout! Learn more

10-Day Weather Forecast

Advertisements
Track Severe Weather on mobile